Time;durP1;ratioP1;P1;durP2;ratioP2;P2;SDS_P1;SDS_P2;PMS_P1;PMS_P2;Temp;Humidity;BMP_temperature;BMP_pressure;BME280_temperature;BME280_humidity;BME280_pressure;Samples;Min_cycle;Max_cycle;Signal;HPM_P1;HPM_P2
2024/03/25 00:00:20;;;;;;;4.03;2.60;;;1.90;99.90;;;;;;2015277;29;20278;-69
2024/03/25 00:01:21;;;;;;;5.22;2.30;;;1.90;99.90;;;;;;2015290;29;20231;-68
2024/03/25 00:02:21;;;;;;;3.67;2.17;;;1.80;99.90;;;;;;2026345;29;20319;-68
2024/03/25 00:03:22;;;;;;;5.37;2.40;;;1.80;99.90;;;;;;2026098;29;20316;-68
2024/03/25 00:04:23;;;;;;;7.00;3.17;;;1.70;99.90;;;;;;2038076;29;20236;-68
2024/03/25 00:05:25;;;;;;;5.47;2.20;;;1.70;99.90;;;;;;2038094;29;20927;-69
2024/03/25 00:06:26;;;;;;;3.95;1.92;;;1.70;99.90;;;;;;2022586;29;20297;-69
2024/03/25 00:07:26;;;;;;;5.13;2.70;;;1.70;99.90;;;;;;2023161;29;20310;-68
2024/03/25 00:08:27;;;;;;;5.13;2.63;;;1.70;99.90;;;;;;2030425;29;20231;-68
2024/03/25 00:09:28;;;;;;;4.20;2.20;;;1.60;99.90;;;;;;2022305;29;20223;-68
2024/03/25 00:10:29;;;;;;;4.87;3.37;;;1.70;99.90;;;;;;2019741;29;20309;-69
2024/03/25 00:11:29;;;;;;;4.03;2.50;;;1.70;99.90;;;;;;2031205;29;21008;-69
2024/03/25 00:12:30;;;;;;;8.63;3.07;;;1.70;99.90;;;;;;2027375;29;20295;-68
2024/03/25 00:13:31;;;;;;;4.67;2.37;;;1.60;99.90;;;;;;2030891;29;20265;-68
2024/03/25 00:14:32;;;;;;;4.77;2.37;;;1.70;99.90;;;;;;2030935;29;20308;-68
2024/03/25 00:15:34;;;;;;;4.60;2.70;;;1.60;99.90;;;;;;2026518;29;20235;-68
2024/03/25 00:16:35;;;;;;;6.47;2.13;;;1.60;99.90;;;;;;2027550;29;20917;-68
2024/03/25 00:17:36;;;;;;;5.65;2.42;;;1.50;99.90;;;;;;2033765;29;20226;-69
2024/03/25 00:18:36;;;;;;;6.13;2.47;;;1.60;99.90;;;;;;2026325;29;20711;-68
2024/03/25 00:19:37;;;;;;;4.63;2.30;;;1.60;99.90;;;;;;2029889;29;20333;-69
2024/03/25 00:20:39;;;;;;;4.97;2.00;;;1.60;99.90;;;;;;2038243;29;20318;-68
2024/03/25 00:21:39;;;;;;;7.10;2.95;;;1.60;99.90;;;;;;2022460;29;20237;-69
2024/03/25 00:22:40;;;;;;;4.00;2.43;;;1.60;99.90;;;;;;2014138;29;20325;-69
2024/03/25 00:23:41;;;;;;;4.38;2.58;;;1.60;99.90;;;;;;2013916;29;20257;-69
2024/03/25 00:24:42;;;;;;;6.87;2.47;;;1.60;99.90;;;;;;2015488;29;20235;-68
2024/03/25 00:25:42;;;;;;;6.93;2.87;;;1.60;99.90;;;;;;2022132;29;20238;-69
2024/03/25 00:26:43;;;;;;;3.90;2.80;;;1.60;99.90;;;;;;2037573;29;20299;-68
2024/03/25 00:27:44;;;;;;;5.97;3.07;;;1.70;99.90;;;;;;2038200;29;20228;-68
2024/03/25 00:28:44;;;;;;;5.83;2.97;;;1.70;99.90;;;;;;2021766;29;20229;-69
2024/03/25 00:29:45;;;;;;;7.77;2.67;;;1.70;99.90;;;;;;2014704;29;20230;-69
2024/03/25 00:30:46;;;;;;;4.10;3.03;;;1.70;99.90;;;;;;2022051;29;20233;-68
2024/03/25 00:31:46;;;;;;;5.63;2.43;;;1.70;99.90;;;;;;2029719;29;20229;-68
2024/03/25 00:32:47;;;;;;;7.63;2.50;;;1.60;99.90;;;;;;2022025;29;20229;-68
2024/03/25 00:33:48;;;;;;;5.20;2.60;;;1.60;99.90;;;;;;2014997;29;20228;-68
2024/03/25 00:34:48;;;;;;;3.43;3.03;;;1.60;99.90;;;;;;2018524;29;20318;-69
2024/03/25 00:35:49;;;;;;;4.93;2.83;;;1.50;99.90;;;;;;2026418;29;20611;-68
2024/03/25 00:36:50;;;;;;;3.93;2.30;;;1.60;99.90;;;;;;2029517;29;20299;-68
2024/03/25 00:37:51;;;;;;;7.50;3.00;;;1.50;99.90;;;;;;2029412;29;20232;-68
2024/03/25 00:38:51;;;;;;;5.93;2.80;;;1.50;99.90;;;;;;2030353;29;20872;-68
2024/03/25 00:39:52;;;;;;;4.00;2.47;;;1.50;99.90;;;;;;2031088;29;20737;-69
2024/03/25 00:40:53;;;;;;;4.90;3.03;;;1.40;99.90;;;;;;2029820;29;20287;-68
2024/03/25 00:41:54;;;;;;;6.40;3.10;;;1.40;99.90;;;;;;2022783;29;20860;-68
2024/03/25 00:42:55;;;;;;;6.75;3.22;;;1.40;99.90;;;;;;2018463;29;20238;-68
2024/03/25 00:43:55;;;;;;;4.50;2.67;;;1.40;99.90;;;;;;2029582;29;20240;-68
2024/03/25 00:44:56;;;;;;;7.33;2.80;;;1.30;99.90;;;;;;2023071;29;20229;-68
2024/03/25 00:45:57;;;;;;;5.27;2.80;;;1.30;99.90;;;;;;2014594;29;20266;-68
2024/03/25 00:46:57;;;;;;;5.47;2.93;;;1.30;99.90;;;;;;2022301;29;20241;-68
2024/03/25 00:47:59;;;;;;;3.27;2.43;;;1.30;99.90;;;;;;2022383;29;20229;-68
2024/03/25 00:49:00;;;;;;;5.35;2.95;;;1.30;99.90;;;;;;2021884;29;20237;-69
2024/03/25 00:50:01;;;;;;;5.03;2.70;;;1.30;99.90;;;;;;2022509;29;20603;-68
2024/03/25 00:51:01;;;;;;;7.43;3.97;;;1.20;99.90;;;;;;2013397;29;20287;-68
2024/03/25 00:52:02;;;;;;;7.10;3.13;;;1.20;99.90;;;;;;2022312;29;20254;-68
2024/03/25 00:53:03;;;;;;;7.47;4.25;;;1.10;99.90;;;;;;2029496;29;20243;-68
2024/03/25 00:54:04;;;;;;;5.47;3.30;;;1.10;99.90;;;;;;2038539;29;20243;-68
2024/03/25 00:55:05;;;;;;;6.18;3.30;;;1.10;99.90;;;;;;2030301;29;20557;-68
2024/03/25 00:56:06;;;;;;;5.43;2.78;;;1.10;99.90;;;;;;2014328;29;20208;-68
2024/03/25 00:57:07;;;;;;;5.37;3.20;;;1.10;99.90;;;;;;2015449;29;20206;-68
2024/03/25 00:58:08;;;;;;;7.00;3.17;;;1.10;99.90;;;;;;2022354;29;20367;-68
2024/03/25 00:59:09;;;;;;;5.90;3.23;;;1.00;99.90;;;;;;2029527;29;20674;-68
2024/03/25 01:00:10;;;;;;;6.37;3.83;;;1.00;99.90;;;;;;2026153;29;20185;-68
2024/03/25 01:01:11;;;;;;;5.65;3.03;;;0.90;99.90;;;;;;2019356;29;20233;-68
2024/03/25 01:02:12;;;;;;;6.95;3.50;;;0.90;99.90;;;;;;2018649;29;20826;-68
2024/03/25 01:03:13;;;;;;;6.93;3.10;;;1.00;99.90;;;;;;2025902;29;20313;-68
2024/03/25 01:04:13;;;;;;;4.87;2.80;;;0.90;99.90;;;;;;2026176;29;20236;-68
2024/03/25 01:05:14;;;;;;;5.07;2.97;;;1.00;99.90;;;;;;2026176;29;20189;-68
2024/03/25 01:06:15;;;;;;;4.40;3.00;;;0.90;99.90;;;;;;2037673;29;20188;-68
2024/03/25 01:07:15;;;;;;;5.60;3.43;;;1.00;99.90;;;;;;2029601;29;20219;-68
2024/03/25 01:08:16;;;;;;;5.53;3.10;;;1.00;99.90;;;;;;2021928;29;20567;-68
2024/03/25 01:09:18;;;;;;;5.93;3.20;;;1.00;99.90;;;;;;2021923;29;20190;-68
2024/03/25 01:10:18;;;;;;;7.28;3.35;;;0.90;99.90;;;;;;2014759;29;20198;-68
2024/03/25 01:11:19;;;;;;;4.73;3.40;;;1.00;99.90;;;;;;2022311;29;20278;-68
2024/03/25 01:12:20;;;;;;;4.63;2.90;;;0.90;99.90;;;;;;2022680;29;20214;-68
2024/03/25 01:13:21;;;;;;;6.80;2.77;;;0.90;99.90;;;;;;2023462;29;20230;-68
2024/03/25 01:14:21;;;;;;;8.67;3.80;;;0.90;99.90;;;;;;2023654;29;20304;-68
2024/03/25 01:15:22;;;;;;;5.40;3.27;;;0.90;99.90;;;;;;2023756;29;20649;-68
2024/03/25 01:16:23;;;;;;;6.95;3.58;;;0.80;99.90;;;;;;2040186;29;20235;-68
2024/03/25 01:17:24;;;;;;;3.67;2.67;;;0.70;99.90;;;;;;2040257;29;20360;-68
2024/03/25 01:18:24;;;;;;;5.20;3.50;;;0.70;99.90;;;;;;2027539;29;20864;-68
2024/03/25 01:19:25;;;;;;;5.73;3.07;;;0.70;99.90;;;;;;2027702;29;20508;-68
2024/03/25 01:20:26;;;;;;;9.40;3.47;;;0.70;99.90;;;;;;2032033;29;20228;-68
2024/03/25 01:21:27;;;;;;;6.07;2.97;;;0.80;99.90;;;;;;2027820;29;20233;-68
2024/03/25 01:22:27;;;;;;;8.03;3.40;;;0.60;99.90;;;;;;2035129;29;20754;-68
2024/03/25 01:23:28;;;;;;;4.83;2.87;;;0.60;99.90;;;;;;2038775;29;20642;-68
2024/03/25 01:24:30;;;;;;;4.93;3.20;;;0.70;99.90;;;;;;2032830;29;20229;-68
2024/03/25 01:25:31;;;;;;;7.95;3.53;;;0.70;99.90;;;;;;2032161;29;20478;-68
2024/03/25 01:26:31;;;;;;;5.40;2.90;;;0.70;99.90;;;;;;2023716;29;20788;-68
2024/03/25 01:27:32;;;;;;;5.43;3.30;;;0.60;99.90;;;;;;2016918;29;20245;-68
2024/03/25 01:28:33;;;;;;;4.13;2.70;;;0.60;99.90;;;;;;2023208;29;20229;-68
2024/03/25 01:29:34;;;;;;;6.87;3.27;;;0.60;99.90;;;;;;2031382;29;20725;-68
2024/03/25 01:30:35;;;;;;;6.93;3.53;;;0.70;99.90;;;;;;2031379;29;20229;-68
2024/03/25 01:31:36;;;;;;;5.47;3.42;;;0.60;99.90;;;;;;2031524;29;20280;-68
2024/03/25 01:32:36;;;;;;;12.37;4.10;;;0.40;99.90;;;;;;2031880;29;20233;-68
2024/03/25 01:33:37;;;;;;;8.37;3.80;;;0.40;99.90;;;;;;2039736;29;20720;-68
2024/03/25 01:34:38;;;;;;;8.73;3.77;;;0.40;99.90;;;;;;2038172;29;20228;-68
2024/03/25 01:35:38;;;;;;;5.43;3.00;;;0.40;99.90;;;;;;2039379;29;20787;-68
2024/03/25 01:36:39;;;;;;;6.43;3.40;;;0.40;99.90;;;;;;2039185;29;20843;-68
2024/03/25 01:37:40;;;;;;;5.40;3.20;;;0.50;99.90;;;;;;2031354;29;20240;-68
2024/03/25 01:38:40;;;;;;;6.40;3.30;;;0.40;99.90;;;;;;2027013;29;20232;-68
2024/03/25 01:39:41;;;;;;;5.43;3.47;;;0.40;99.90;;;;;;2027133;29;20228;-68
2024/03/25 01:40:42;;;;;;;8.93;3.47;;;0.40;99.90;;;;;;2031411;29;20244;-68
2024/03/25 01:41:42;;;;;;;5.40;3.50;;;0.40;99.90;;;;;;2023662;29;20233;-68
2024/03/25 01:42:44;;;;;;;6.07;2.93;;;0.40;99.90;;;;;;2023522;29;20241;-68
2024/03/25 01:43:45;;;;;;;4.90;2.70;;;0.40;99.90;;;;;;2023609;29;20249;-68
2024/03/25 01:44:46;;;;;;;5.93;3.30;;;0.50;99.90;;;;;;2023706;29;20233;-68
2024/03/25 01:45:48;;;;;;;7.05;3.05;;;0.40;99.90;;;;;;2024612;29;20234;-68
2024/03/25 01:46:49;;;;;;;6.07;3.10;;;0.40;99.90;;;;;;2012534;29;20310;-68
2024/03/25 01:47:51;;;;;;;6.40;3.30;;;0.40;99.90;;;;;;2023916;29;20233;-68
2024/03/25 01:48:53;;;;;;;4.78;2.78;;;0.40;99.90;;;;;;2023193;29;20694;-68
2024/03/25 01:49:56;;;;;;;5.10;3.00;;;0.40;99.90;;;;;;2023442;29;20333;-68
2024/03/25 01:50:57;;;;;;;8.13;3.72;;;0.30;99.90;;;;;;2023480;29;20229;-68
2024/03/25 01:51:59;;;;;;;9.68;3.72;;;0.30;99.90;;;;;;2023930;29;20241;-68
2024/03/25 01:52:59;;;;;;;5.60;3.40;;;0.40;99.90;;;;;;2023326;29;20236;-68
2024/03/25 01:54:01;;;;;;;7.17;3.33;;;0.30;99.90;;;;;;2023099;29;20733;-68
2024/03/25 01:55:03;;;;;;;4.50;3.17;;;0.30;99.90;;;;;;2030241;29;20256;-67
2024/03/25 01:56:05;;;;;;;7.28;3.17;;;0.30;99.90;;;;;;2032163;29;20548;-67
2024/03/25 01:57:06;;;;;;;6.95;3.67;;;0.40;99.90;;;;;;2023895;29;20194;-67
2024/03/25 01:58:07;;;;;;;9.10;4.35;;;0.40;99.90;;;;;;2015557;29;20195;-67
2024/03/25 01:59:08;;;;;;;6.70;4.03;;;0.50;99.90;;;;;;2015549;29;20194;-68
2024/03/25 02:00:09;;;;;;;7.00;4.33;;;0.40;99.90;;;;;;2023438;29;20194;-68
2024/03/25 02:01:13;;;;;;;8.07;4.10;;;0.40;99.90;;;;;;2016177;29;20433;-67
2024/03/25 02:02:14;;;;;;;8.43;3.70;;;0.30;99.90;;;;;;2008117;29;20187;-68
2024/03/25 02:03:15;;;;;;;5.20;3.20;;;0.30;99.90;;;;;;2016221;29;20201;-68
2024/03/25 02:04:16;;;;;;;7.00;3.67;;;0.30;99.90;;;;;;2014999;29;20214;-67
2024/03/25 02:05:18;;;;;;;6.20;3.63;;;0.30;99.90;;;;;;2030403;29;20571;-67
2024/03/25 02:06:21;;;;;;;5.47;3.13;;;0.20;99.90;;;;;;2029938;29;20272;-67
2024/03/25 02:07:24;;;;;;;6.32;2.88;;;0.20;99.90;;;;;;2019211;29;20779;-67
2024/03/25 02:08:27;;;;;;;7.47;3.40;;;0.10;99.90;;;;;;2034041;29;20707;-68
2024/03/25 02:09:28;;;;;;;5.47;3.42;;;0.30;99.90;;;;;;2029410;29;20237;-68
2024/03/25 02:10:29;;;;;;;11.13;4.32;;;0.10;99.90;;;;;;2018896;29;20225;-67
2024/03/25 02:11:30;;;;;;;5.07;2.97;;;0.10;99.90;;;;;;2027722;29;20236;-67
2024/03/25 02:12:32;;;;;;;4.88;2.72;;;0.20;99.90;;;;;;2023351;29;20715;-67
2024/03/25 02:13:35;;;;;;;9.05;3.45;;;0.20;99.90;;;;;;2027534;29;20242;-67
2024/03/25 02:14:36;;;;;;;6.43;3.90;;;0.30;99.90;;;;;;2039462;29;20255;-67
2024/03/25 02:15:37;;;;;;;6.13;3.13;;;0.30;99.90;;;;;;2038218;29;20239;-67
2024/03/25 02:16:37;;;;;;;4.90;3.37;;;0.30;99.90;;;;;;2026285;29;20252;-67
2024/03/25 02:17:38;;;;;;;6.10;3.40;;;0.30;99.90;;;;;;2026648;29;20296;-67
2024/03/25 02:18:39;;;;;;;4.82;2.88;;;0.30;99.90;;;;;;2037411;29;20224;-67
2024/03/25 02:19:41;;;;;;;7.33;3.10;;;0.30;99.90;;;;;;2039273;29;20235;-67
2024/03/25 02:20:41;;;;;;;6.65;3.53;;;0.30;99.90;;;;;;2022193;29;20229;-67
2024/03/25 02:21:42;;;;;;;5.77;3.47;;;0.30;99.90;;;;;;2022746;29;20267;-67
2024/03/25 02:22:43;;;;;;;4.20;2.57;;;0.30;99.90;;;;;;2022017;29;20312;-67
2024/03/25 02:23:45;;;;;;;5.23;3.07;;;0.30;99.90;;;;;;2013823;29;20754;-67
2024/03/25 02:24:52;;;;;;;6.90;2.78;;;0.30;99.90;;;;;;2023034;29;20235;-67
2024/03/25 02:25:54;;;;;;;6.53;3.50;;;0.40;99.90;;;;;;2030939;29;20319;-67
2024/03/25 02:26:54;;;;;;;4.30;3.03;;;0.40;99.90;;;;;;2026312;29;20248;-67
2024/03/25 02:27:55;;;;;;;5.73;3.23;;;0.40;99.90;;;;;;2026798;29;20236;-67
2024/03/25 02:28:56;;;;;;;7.57;3.33;;;0.40;99.90;;;;;;2026308;29;20770;-67
2024/03/25 02:30:10;;;;;;;7.33;3.47;;;0.30;99.90;;;;;;2026796;29;20286;-67
2024/03/25 02:31:11;;;;;;;6.22;3.13;;;0.30;99.90;;;;;;2025423;29;20319;-67
2024/03/25 02:32:12;;;;;;;5.37;3.60;;;0.30;99.90;;;;;;2039128;29;20314;-67
2024/03/25 02:33:14;;;;;;;5.00;2.83;;;0.30;99.90;;;;;;2037243;29;20264;-67
2024/03/25 02:34:14;;;;;;;5.72;3.20;;;0.30;99.90;;;;;;2030604;29;20201;-67
2024/03/25 02:35:16;;;;;;;8.37;3.90;;;0.30;99.90;;;;;;2028986;29;20585;-67
2024/03/25 02:36:17;;;;;;;5.13;3.03;;;0.30;99.90;;;;;;2037555;29;20222;-67
2024/03/25 02:37:19;;;;;;;7.17;2.83;;;0.40;99.90;;;;;;2029898;29;20200;-67
2024/03/25 02:38:19;;;;;;;5.75;2.90;;;0.30;99.90;;;;;;2022245;29;20194;-67
2024/03/25 02:39:20;;;;;;;6.87;3.60;;;0.30;99.90;;;;;;2022809;29;20178;-67
2024/03/25 02:40:22;;;;;;;6.13;3.03;;;0.30;99.90;;;;;;2014286;29;20491;-67
2024/03/25 02:41:24;;;;;;;7.90;3.95;;;0.40;99.90;;;;;;2031630;29;20705;-67
2024/03/25 02:42:29;;;;;;;6.75;4.00;;;0.30;99.90;;;;;;2030446;29;20221;-67
2024/03/25 02:43:30;;;;;;;5.32;3.25;;;0.30;99.90;;;;;;2014543;29;20234;-68
2024/03/25 02:44:31;;;;;;;4.53;3.08;;;0.30;99.90;;;;;;2012042;29;20234;-67
2024/03/25 02:45:32;;;;;;;8.50;3.10;;;0.30;99.90;;;;;;2014471;29;20230;-67
2024/03/25 02:46:34;;;;;;;6.73;3.30;;;0.20;99.90;;;;;;2022257;29;20337;-67
2024/03/25 02:47:35;;;;;;;4.82;2.72;;;0.30;99.90;;;;;;2023686;29;20226;-67
2024/03/25 02:48:35;;;;;;;6.70;3.30;;;0.30;99.90;;;;;;2029709;29;20261;-67
2024/03/25 02:49:36;;;;;;;6.00;3.43;;;0.30;99.90;;;;;;2027059;29;20240;-67
2024/03/25 02:50:36;;;;;;;9.63;3.30;;;0.30;99.90;;;;;;2028837;29;20221;-67
2024/03/25 02:51:37;;;;;;;4.40;3.00;;;0.40;99.90;;;;;;2030451;29;20634;-67
2024/03/25 02:52:38;;;;;;;5.27;2.90;;;0.40;99.90;;;;;;2021496;29;20256;-67
2024/03/25 02:53:38;;;;;;;6.40;3.30;;;0.40;99.90;;;;;;2022971;29;20289;-67
2024/03/25 02:54:39;;;;;;;9.17;3.70;;;0.40;99.90;;;;;;2036765;29;20330;-67
2024/03/25 02:55:40;;;;;;;7.77;3.60;;;0.40;99.90;;;;;;2036650;29;20259;-67
2024/03/25 02:56:40;;;;;;;5.70;3.13;;;0.40;99.90;;;;;;2029606;29;20320;-67
2024/03/25 02:57:41;;;;;;;5.80;3.00;;;0.40;99.90;;;;;;2021226;29;20246;-68
2024/03/25 02:58:42;;;;;;;5.73;3.43;;;0.40;99.90;;;;;;2021357;29;20284;-68
2024/03/25 02:59:42;;;;;;;5.00;2.93;;;0.40;99.90;;;;;;2028945;29;20244;-68
2024/03/25 03:00:43;;;;;;;4.43;3.17;;;0.40;99.90;;;;;;2025026;29;20245;-68
2024/03/25 03:01:44;;;;;;;4.93;2.70;;;0.40;99.90;;;;;;2025490;29;20726;-68
2024/03/25 03:02:45;;;;;;;7.37;3.00;;;0.30;99.90;;;;;;2025090;29;20607;-68
2024/03/25 03:03:45;;;;;;;5.33;2.97;;;0.40;99.90;;;;;;2026685;29;20230;-68
2024/03/25 03:04:46;;;;;;;6.30;3.07;;;0.30;99.90;;;;;;2028878;29;20240;-68
2024/03/25 03:05:47;;;;;;;7.70;3.30;;;0.20;99.90;;;;;;2026638;29;20236;-68
2024/03/25 03:06:47;;;;;;;8.73;3.07;;;0.10;99.90;;;;;;2033647;29;20614;-68
2024/03/25 03:07:48;;;;;;;3.63;2.93;;;0.00;99.90;;;;;;2037195;29;20259;-68
2024/03/25 03:08:49;;;;;;;4.47;3.13;;;0.00;99.90;;;;;;2034358;29;20275;-68
2024/03/25 03:09:49;;;;;;;6.93;3.03;;;0.00;99.90;;;;;;2036730;29;20311;-68
2024/03/25 03:10:50;;;;;;;8.33;3.37;;;0.00;99.90;;;;;;2028707;29;20272;-68
2024/03/25 03:11:50;;;;;;;5.10;3.07;;;0.10;99.90;;;;;;2030272;29;20233;-68
2024/03/25 03:12:51;;;;;;;4.93;2.63;;;0.00;99.90;;;;;;2030182;29;20267;-68
2024/03/25 03:13:52;;;;;;;6.33;2.83;;;0.00;99.90;;;;;;2030636;29;20296;-68
2024/03/25 03:14:52;;;;;;;5.67;2.90;;;0.00;99.90;;;;;;2025464;29;20237;-68
2024/03/25 03:15:53;;;;;;;4.00;2.90;;;0.00;99.90;;;;;;2027386;29;20233;-68
2024/03/25 03:16:56;;;;;;;6.87;2.97;;;0.00;99.90;;;;;;2025782;29;20263;-68
2024/03/25 03:17:57;;;;;;;5.85;3.40;;;0.00;99.90;;;;;;2033677;29;20239;-68
2024/03/25 03:18:58;;;;;;;9.30;3.40;;;0.10;99.90;;;;;;2037042;29;20315;-68
2024/03/25 03:19:58;;;;;;;6.93;3.57;;;0.10;99.90;;;;;;2021311;29;20243;-68
2024/03/25 03:20:59;;;;;;;6.77;3.03;;;0.10;99.90;;;;;;2019229;29;20233;-69
2024/03/25 03:22:00;;;;;;;5.07;3.13;;;0.10;99.90;;;;;;2035711;29;20264;-68
2024/03/25 03:23:00;;;;;;;5.67;3.20;;;0.10;99.90;;;;;;2038067;29;20228;-68
2024/03/25 03:24:01;;;;;;;4.77;3.37;;;0.10;99.90;;;;;;2023022;29;20608;-67
2024/03/25 03:25:02;;;;;;;6.20;3.30;;;0.10;99.90;;;;;;2026625;29;20356;-68
2024/03/25 03:26:03;;;;;;;5.60;3.00;;;0.10;99.90;;;;;;2029656;29;20201;-68
2024/03/25 03:27:04;;;;;;;8.13;3.10;;;0.10;99.90;;;;;;2029913;29;20212;-69
2024/03/25 03:28:05;;;;;;;5.20;3.03;;;0.10;99.90;;;;;;2029956;29;20619;-68
2024/03/25 03:29:05;;;;;;;9.77;3.27;;;0.00;99.90;;;;;;2021061;29;20190;-68
2024/03/25 03:30:07;;;;;;;4.80;2.80;;;0.00;99.90;;;;;;2021481;29;20419;-68
2024/03/25 03:31:07;;;;;;;9.40;3.88;;;0.00;99.90;;;;;;2013829;29;20250;-68
2024/03/25 03:32:08;;;;;;;6.43;3.13;;;-0.10;99.90;;;;;;2029070;29;20573;-68
2024/03/25 03:33:09;;;;;;;9.90;3.03;;;-0.10;99.90;;;;;;2030790;29;20185;-69
2024/03/25 03:34:09;;;;;;;6.00;2.90;;;0.00;99.90;;;;;;2021298;29;20201;-68
2024/03/25 03:35:10;;;;;;;9.10;3.17;;;-0.10;99.90;;;;;;2021339;29;20212;-68
2024/03/25 03:36:11;;;;;;;7.50;3.57;;;-0.20;99.90;;;;;;2021254;29;20288;-68
2024/03/25 03:37:12;;;;;;;5.30;3.30;;;-0.20;99.90;;;;;;2030863;29;20199;-68
2024/03/25 03:38:12;;;;;;;5.60;3.73;;;-0.20;99.90;;;;;;2021743;29;20201;-68
2024/03/25 03:39:13;;;;;;;6.93;3.10;;;-0.20;99.90;;;;;;2016419;29;20245;-68
2024/03/25 03:40:14;;;;;;;6.43;3.30;;;-0.30;99.90;;;;;;2021835;29;20189;-68
2024/03/25 03:41:15;;;;;;;8.27;3.77;;;-0.40;99.90;;;;;;2025924;29;20620;-68
2024/03/25 03:42:15;;;;;;;6.13;2.93;;;-0.30;99.90;;;;;;2024553;29;20434;-68
2024/03/25 03:43:16;;;;;;;5.63;2.90;;;-0.40;99.90;;;;;;2021676;29;20189;-68
2024/03/25 03:44:17;;;;;;;7.00;3.13;;;-0.50;99.90;;;;;;2036715;29;20208;-68
2024/03/25 03:45:17;;;;;;;5.93;3.60;;;-0.40;99.90;;;;;;2029725;29;20185;-68
2024/03/25 03:46:18;;;;;;;5.60;3.13;;;-0.40;99.90;;;;;;2023792;29;20198;-68
2024/03/25 03:47:19;;;;;;;7.70;2.93;;;-0.40;99.90;;;;;;2029977;29;20208;-68
2024/03/25 03:48:20;;;;;;;5.23;2.70;;;-0.40;99.90;;;;;;2029558;29;20624;-68
2024/03/25 03:49:20;;;;;;;5.07;3.17;;;-0.40;99.90;;;;;;2028760;29;20246;-68
2024/03/25 03:50:21;;;;;;;8.63;3.63;;;-0.40;99.90;;;;;;2029317;29;20264;-69
2024/03/25 03:51:22;;;;;;;6.93;3.27;;;-0.50;99.90;;;;;;2032794;29;20272;-68
2024/03/25 03:52:22;;;;;;;7.10;4.13;;;-0.60;99.90;;;;;;2031776;29;20386;-68
2024/03/25 03:53:23;;;;;;;5.83;3.30;;;-0.60;99.90;;;;;;2021338;29;20241;-68
2024/03/25 03:54:24;;;;;;;5.73;2.93;;;-0.70;99.90;;;;;;2013525;29;20762;-68
2024/03/25 03:55:24;;;;;;;5.60;3.00;;;-0.70;99.90;;;;;;2023203;29;20268;-68
2024/03/25 03:56:25;;;;;;;6.00;3.67;;;-0.70;99.90;;;;;;2029705;29;20239;-68
2024/03/25 03:57:26;;;;;;;9.67;3.33;;;-0.60;99.90;;;;;;2021266;29;20726;-68
2024/03/25 03:58:26;;;;;;;7.13;3.20;;;-0.60;99.90;;;;;;2021812;29;20834;-68
2024/03/25 03:59:27;;;;;;;7.90;3.30;;;-0.60;99.90;;;;;;2021484;29;20635;-68
2024/03/25 04:00:28;;;;;;;3.90;3.13;;;-0.50;99.90;;;;;;2021556;29;20629;-68
2024/03/25 04:01:28;;;;;;;6.97;3.47;;;-0.60;99.90;;;;;;2021959;29;20274;-68
2024/03/25 04:02:29;;;;;;;6.27;3.10;;;-0.60;99.90;;;;;;2013840;29;20229;-68
2024/03/25 04:03:30;;;;;;;7.00;3.43;;;-0.70;99.90;;;;;;2021396;29;20236;-68
2024/03/25 04:04:31;;;;;;;5.68;3.28;;;-0.60;99.90;;;;;;2028903;29;20372;-68
2024/03/25 04:05:31;;;;;;;7.77;3.23;;;-0.60;99.90;;;;;;2022244;29;20248;-68
2024/03/25 04:06:32;;;;;;;6.60;3.00;;;-0.70;99.90;;;;;;2021167;29;20229;-68
2024/03/25 04:07:33;;;;;;;4.47;2.43;;;-0.70;99.90;;;;;;2021668;29;20307;-68
2024/03/25 04:08:33;;;;;;;5.70;3.10;;;-0.70;99.90;;;;;;2023082;29;20319;-68
2024/03/25 04:09:34;;;;;;;4.40;2.83;;;-0.70;99.90;;;;;;2029284;29;20228;-68
2024/03/25 04:10:36;;;;;;;7.50;3.80;;;-0.70;99.90;;;;;;2031490;29;20244;-68
2024/03/25 04:11:36;;;;;;;4.80;3.15;;;-0.70;99.90;;;;;;2021604;29;20261;-68
2024/03/25 04:12:39;;;;;;;6.33;3.27;;;-0.70;99.90;;;;;;2014125;29;20779;-68
2024/03/25 04:13:39;;;;;;;4.57;2.97;;;-0.80;99.90;;;;;;2011056;29;20615;-68
2024/03/25 04:14:40;;;;;;;5.43;3.77;;;-0.70;99.90;;;;;;2021194;29;20335;-68
2024/03/25 04:15:43;;;;;;;6.10;3.23;;;-0.80;99.90;;;;;;2029711;29;20221;-68
2024/03/25 04:16:44;;;;;;;8.98;3.55;;;-0.80;99.90;;;;;;2030510;29;20275;-68
2024/03/25 04:17:45;;;;;;;6.53;3.27;;;-0.80;99.90;;;;;;2031148;29;20251;-68
2024/03/25 04:18:47;;;;;;;6.10;3.97;;;-0.90;99.90;;;;;;2025750;29;20264;-68
2024/03/25 04:19:51;;;;;;;4.97;3.85;;;-1.00;99.90;;;;;;2025009;29;20516;-68
2024/03/25 04:20:52;;;;;;;6.25;3.70;;;-1.00;99.90;;;;;;2025690;29;20243;-68
2024/03/25 04:21:56;;;;;;;6.40;4.17;;;-0.90;99.90;;;;;;2029241;29;20255;-68
2024/03/25 04:22:57;;;;;;;9.88;4.57;;;-0.90;99.90;;;;;;2037415;29;20242;-68
2024/03/25 04:23:57;;;;;;;7.05;4.40;;;-1.00;99.90;;;;;;2021190;29;21108;-68
2024/03/25 04:24:58;;;;;;;6.00;4.23;;;-0.90;99.90;;;;;;2013137;29;20255;-68
2024/03/25 04:26:02;;;;;;;7.10;4.00;;;-0.90;99.90;;;;;;2037012;29;20705;-68
2024/03/25 04:27:03;;;;;;;8.05;4.00;;;-0.90;99.90;;;;;;2032046;29;20724;-68
2024/03/25 04:28:08;;;;;;;6.70;4.10;;;-0.90;99.90;;;;;;2022068;29;20229;-68
2024/03/25 04:29:09;;;;;;;6.72;3.80;;;-0.90;99.90;;;;;;2013570;29;20421;-68
2024/03/25 04:30:11;;;;;;;5.93;4.17;;;-0.80;99.90;;;;;;2022778;29;20221;-68
2024/03/25 04:31:12;;;;;;;7.53;3.75;;;-0.80;99.90;;;;;;2037722;29;20246;-68
2024/03/25 04:32:13;;;;;;;6.33;3.40;;;-0.80;99.90;;;;;;2037761;29;20222;-68
2024/03/25 04:33:13;;;;;;;4.70;3.27;;;-0.70;99.90;;;;;;2028042;29;20310;-68
2024/03/25 04:34:14;;;;;;;6.37;3.57;;;-0.90;99.90;;;;;;2028486;29;20220;-68
2024/03/25 04:35:14;;;;;;;11.90;4.77;;;-0.90;99.90;;;;;;2025768;29;20188;-68
2024/03/25 04:36:15;;;;;;;6.73;4.43;;;-1.00;99.90;;;;;;2025834;29;20193;-68
2024/03/25 04:37:16;;;;;;;8.13;4.80;;;-1.10;99.90;;;;;;2037000;29;20598;-68
2024/03/25 04:38:17;;;;;;;7.97;5.03;;;-1.10;99.90;;;;;;2036951;29;20298;-68
2024/03/25 04:39:18;;;;;;;6.87;4.20;;;-1.00;99.90;;;;;;2024625;29;20215;-68
2024/03/25 04:40:19;;;;;;;6.45;4.13;;;-1.10;99.90;;;;;;2019199;29;20189;-68
2024/03/25 04:41:20;;;;;;;8.50;5.50;;;-1.20;99.90;;;;;;2025568;29;20558;-68
2024/03/25 04:42:24;;;;;;;7.43;5.27;;;-1.20;99.90;;;;;;2021580;29;20237;-68
2024/03/25 04:43:25;;;;;;;7.93;5.47;;;-1.20;99.90;;;;;;2021152;29;20540;-68
2024/03/25 04:44:25;;;;;;;8.93;5.37;;;-1.20;99.90;;;;;;2020615;29;20241;-68
2024/03/25 04:45:26;;;;;;;11.83;6.07;;;-1.10;99.90;;;;;;2015019;29;20233;-68
2024/03/25 04:46:27;;;;;;;8.73;5.60;;;-1.10;99.90;;;;;;2020784;29;20336;-68
2024/03/25 04:47:27;;;;;;;12.13;4.40;;;-1.10;99.90;;;;;;2030379;29;21105;-68
2024/03/25 04:48:28;;;;;;;7.73;4.10;;;-1.10;99.90;;;;;;2037658;29;20236;-68
2024/03/25 04:49:29;;;;;;;6.73;3.80;;;-1.10;99.90;;;;;;2038453;29;20224;-68
2024/03/25 04:50:30;;;;;;;5.67;3.90;;;-1.10;99.90;;;;;;2029820;29;20240;-68
2024/03/25 04:51:31;;;;;;;5.78;3.50;;;-1.10;99.90;;;;;;2021069;29;20233;-68
2024/03/25 04:52:32;;;;;;;6.60;3.00;;;-1.20;99.90;;;;;;2013602;29;20717;-68
2024/03/25 04:53:33;;;;;;;6.70;3.03;;;-1.30;99.90;;;;;;2021780;29;20337;-68
2024/03/25 04:54:33;;;;;;;3.63;2.77;;;-1.30;99.90;;;;;;2029558;29;20356;-68
2024/03/25 04:55:34;;;;;;;4.20;3.23;;;-1.30;99.90;;;;;;2029840;29;20299;-68
2024/03/25 04:56:35;;;;;;;4.57;3.07;;;-1.20;99.90;;;;;;2027581;29;20238;-68
2024/03/25 04:57:35;;;;;;;6.00;4.70;;;-1.10;99.90;;;;;;2029580;29;20232;-68
2024/03/25 04:58:36;;;;;;;6.87;4.50;;;-1.10;99.90;;;;;;2026628;29;20245;-68
2024/03/25 04:59:37;;;;;;;9.30;5.13;;;-1.10;99.90;;;;;;2024746;29;20686;-68
2024/03/25 05:00:37;;;;;;;11.03;5.53;;;-1.20;99.90;;;;;;2030654;29;20233;-68
2024/03/25 05:01:38;;;;;;;7.63;6.17;;;-1.10;99.90;;;;;;2025203;29;20236;-67
2024/03/25 05:02:39;;;;;;;8.47;4.90;;;-1.10;99.90;;;;;;2035034;29;20787;-67
2024/03/25 05:03:39;;;;;;;6.87;4.70;;;-1.10;99.90;;;;;;2038348;29;20233;-67
2024/03/25 05:04:40;;;;;;;9.47;5.87;;;-1.10;99.90;;;;;;2025207;29;20306;-67
2024/03/25 05:05:41;;;;;;;9.17;5.00;;;-1.20;99.90;;;;;;2026463;29;20267;-67
2024/03/25 05:06:41;;;;;;;9.10;4.50;;;-1.10;99.90;;;;;;2029536;29;20275;-67
2024/03/25 05:07:42;;;;;;;7.17;4.63;;;-1.20;99.90;;;;;;2029654;29;20633;-67
2024/03/25 05:08:43;;;;;;;8.53;5.23;;;-1.20;99.90;;;;;;2029704;29;20236;-67
2024/03/25 05:09:44;;;;;;;9.23;4.87;;;-1.20;99.90;;;;;;2020609;29;20611;-67
2024/03/25 05:10:45;;;;;;;9.52;4.95;;;-1.30;99.90;;;;;;2021245;29;20257;-66
2024/03/25 05:11:46;;;;;;;7.67;5.07;;;-1.30;99.90;;;;;;2021607;29;20240;-67
2024/03/25 05:12:49;;;;;;;7.33;5.07;;;-1.30;99.90;;;;;;2021697;29;20639;-67
2024/03/25 05:13:49;;;;;;;9.40;5.47;;;-1.30;99.90;;;;;;2021156;29;20240;-67
2024/03/25 05:14:50;;;;;;;6.10;3.83;;;-1.30;99.90;;;;;;2020730;29;20232;-67
2024/03/25 05:15:52;;;;;;;4.53;2.90;;;-1.30;99.90;;;;;;2021484;29;20243;-66
2024/03/25 05:16:53;;;;;;;5.88;3.10;;;-1.30;99.90;;;;;;2030600;29;20654;-67
2024/03/25 05:17:54;;;;;;;8.35;3.97;;;-1.30;99.90;;;;;;2029547;29;20280;-67
2024/03/25 05:18:54;;;;;;;10.20;4.17;;;-1.30;99.90;;;;;;2022665;29;20235;-67
2024/03/25 05:19:55;;;;;;;7.37;4.67;;;-1.30;99.90;;;;;;2028880;29;20316;-66